Time;durP1;ratioP1;P1;durP2;ratioP2;P2;SDS_P1;SDS_P2;PMS_P1;PMS_P2;Temp;Humidity;BMP_temperature;BMP_pressure;BME280_temperature;BME280_humidity;BME280_pressure;Samples;Min_cycle;Max_cycle;Signal;HPM_P1;HPM_P2
2022/05/03 00:00:35;;;;;;;4.97;3.30;;;;;;;8.90;66.52;93701.34;5082522;28;20263;-70
2022/05/03 00:03:06;;;;;;;4.95;2.92;;;;;;;8.94;66.53;93700.44;5082090;28;20044;-70
2022/05/03 00:05:52;;;;;;;6.57;3.10;;;;;;;8.94;66.87;93700.44;5082784;28;20046;-71
2022/05/03 00:08:28;;;;;;;4.75;3.08;;;;;;;8.96;66.40;93692.16;5082230;28;20082;-71
2022/05/03 00:10:53;;;;;;;7.22;3.13;;;;;;;8.91;65.83;93695.72;5082512;28;20087;-70
2022/05/03 00:13:25;;;;;;;5.82;2.60;;;;;;;8.98;65.54;93684.66;5082686;28;20060;-70
2022/05/03 00:15:51;;;;;;;3.95;2.80;;;;;;;8.91;66.26;93695.72;5082472;28;20035;-70
2022/05/03 00:18:17;;;;;;;3.92;2.50;;;;;;;8.90;66.17;93688.06;5082470;28;20341;-71
2022/05/03 00:20:46;;;;;;;5.18;2.75;;;;;;;8.89;66.45;93691.81;5082617;28;20020;-71
2022/05/03 00:23:11;;;;;;;6.22;2.75;;;;;;;8.78;66.70;93694.72;5082429;28;20104;-70
2022/05/03 00:25:38;;;;;;;4.50;2.50;;;;;;;8.79;66.35;93690.19;5082133;28;20326;-70
2022/05/03 00:28:04;;;;;;;4.75;2.40;;;;;;;8.71;66.89;93688.28;5082237;28;20206;-70
2022/05/03 00:30:30;;;;;;;6.93;2.38;;;;;;;8.75;67.49;93692.69;5082331;28;20028;-70
2022/05/03 00:32:58;;;;;;;4.97;2.65;;;;;;;8.72;67.43;93682.66;5082207;28;20112;-71
2022/05/03 00:35:24;;;;;;;4.15;2.38;;;;;;;8.74;67.11;93691.09;5082042;28;20215;-71
2022/05/03 00:37:49;;;;;;;6.38;2.33;;;;;;;8.73;67.18;93700.19;5064246;28;20054;-70
2022/05/03 00:40:18;;;;;;;4.13;2.80;;;;;;;8.78;67.28;93689.41;5082147;28;20092;-71
2022/05/03 00:43:09;;;;;;;4.45;3.00;;;;;;;8.87;67.16;93688.66;5082499;28;20302;-70
2022/05/03 00:45:54;;;;;;;3.95;2.58;;;;;;;8.89;66.83;93695.22;5082459;28;20353;-72
2022/05/03 00:48:44;;;;;;;4.45;2.80;;;;;;;8.84;65.92;93690.06;5085757;28;20314;-70
2022/05/03 00:51:16;;;;;;;4.65;3.03;;;;;;;8.91;66.67;93694.94;5085802;28;20027;-70
2022/05/03 00:54:04;;;;;;;7.85;2.92;;;;;;;8.88;66.30;93693.69;5085962;28;20028;-70
2022/05/03 00:57:03;;;;;;;5.95;2.22;;;;;;;8.92;66.73;93699.19;5085567;28;20024;-70
2022/05/03 00:59:54;;;;;;;4.30;2.90;;;;;;;8.88;67.05;93690.25;5048109;28;20036;-70
2022/05/03 01:02:39;;;;;;;4.32;2.58;;;;;;;8.86;67.47;93690.53;5065281;28;20028;-70
2022/05/03 01:05:09;;;;;;;3.67;2.42;;;;;;;8.87;67.66;93688.66;5065398;28;20029;-70
2022/05/03 01:08:00;;;;;;;4.07;2.30;;;;;;;8.86;67.37;93684.44;5065271;28;20039;-70
2022/05/03 01:10:37;;;;;;;3.35;2.38;;;;;;;8.83;67.13;93673.34;5065175;28;20330;-70
2022/05/03 01:13:29;;;;;;;5.20;2.88;;;;;;;8.83;67.12;93683.16;5065202;28;20250;-69
2022/05/03 01:16:00;;;;;;;5.88;3.00;;;;;;;8.84;67.45;93679.44;5065198;28;20216;-70
2022/05/03 01:18:28;;;;;;;3.97;2.53;;;;;;;8.86;66.70;93673.81;5064923;28;20315;-70
2022/05/03 01:21:35;;;;;;;3.15;1.80;;;;;;;8.86;66.38;93674.59;5064976;28;20346;-70
2022/05/03 01:24:15;;;;;;;2.80;1.63;;;;;;;8.81;66.10;93680.03;5064756;28;20053;-70
2022/05/03 01:26:55;;;;;;;4.45;2.08;;;;;;;8.74;65.72;93674.38;5065073;28;20261;-70
2022/05/03 01:29:24;;;;;;;2.92;1.75;;;;;;;8.71;66.08;93667.00;5064754;28;20021;-71
2022/05/03 01:31:55;;;;;;;3.63;1.98;;;;;;;8.68;66.07;93664.97;5064711;28;20078;-70
2022/05/03 01:34:24;;;;;;;3.38;2.50;;;;;;;8.63;66.14;93658.72;5064731;28;20330;-70
2022/05/03 01:37:05;;;;;;;5.45;2.50;;;;;;;8.50;65.56;93654.25;5064721;28;20024;-70
2022/05/03 01:39:42;;;;;;;6.20;2.25;;;;;;;8.47;65.97;93660.19;5064544;28;20033;-70
2022/05/03 01:42:20;;;;;;;4.60;2.35;;;;;;;8.39;65.16;93653.69;5064394;28;20055;-69
2022/05/03 01:45:02;;;;;;;3.88;2.55;;;;;;;8.40;66.14;93651.81;5064791;28;20021;-71
2022/05/03 01:47:51;;;;;;;6.75;2.95;;;;;;;8.34;65.95;93655.69;5064602;28;20032;-70
2022/05/03 01:50:42;;;;;;;4.53;2.72;;;;;;;8.26;65.80;93643.16;5064419;28;20063;-70
2022/05/03 01:53:23;;;;;;;5.05;3.20;;;;;;;8.19;66.16;93646.25;5064425;28;20335;-70
2022/05/03 01:56:16;;;;;;;6.68;3.80;;;;;;;8.18;66.36;93642.81;5064588;28;20029;-70
2022/05/03 01:59:06;;;;;;;6.63;2.92;;;;;;;8.14;65.75;93641.03;5078684;28;20040;-72
2022/05/03 02:01:40;;;;;;;4.55;2.67;;;;;;;8.16;66.86;93637.00;5084333;28;20341;-70
2022/05/03 02:04:09;;;;;;;4.15;2.70;;;;;;;8.20;67.24;93643.28;5084200;28;20214;-70
2022/05/03 02:07:04;;;;;;;3.33;2.22;;;;;;;8.27;67.41;93640.19;5084158;28;20031;-70
2022/05/03 02:09:41;;;;;;;3.80;2.60;;;;;;;8.30;67.52;93638.78;5084265;28;20023;-70
2022/05/03 02:12:18;;;;;;;2.78;2.10;;;;;;;8.38;67.33;93638.06;5084123;28;20096;-70
2022/05/03 02:14:52;;;;;;;4.85;2.70;;;;;;;8.48;67.78;93645.03;5084355;28;20029;-71
2022/05/03 02:17:43;;;;;;;5.80;2.88;;;;;;;8.58;67.63;93648.19;5083993;28;20024;-70
2022/05/03 02:20:11;;;;;;;3.65;2.53;;;;;;;8.59;66.45;93639.16;5083901;28;20020;-70
2022/05/03 02:23:15;;;;;;;4.95;2.13;;;;;;;8.66;65.46;93640.59;5084014;28;20024;-70
2022/05/03 02:26:17;;;;;;;4.00;2.38;;;;;;;8.74;66.41;93627.34;5083663;28;20034;-70
2022/05/03 02:28:47;;;;;;;3.20;2.40;;;;;;;8.80;67.07;93641.28;5083859;28;20026;-70
2022/05/03 02:31:32;;;;;;;3.67;2.38;;;;;;;8.86;67.81;93632.06;5084138;28;20112;-71
2022/05/03 02:34:36;;;;;;;4.35;2.60;;;;;;;8.92;67.63;93636.16;5083521;28;20074;-71
2022/05/03 02:37:13;;;;;;;4.68;2.60;;;;;;;8.98;67.59;93629.63;5080690;28;20074;-71
2022/05/03 02:39:47;;;;;;;4.45;2.35;;;;;;;9.00;67.62;93630.09;5083535;28;20029;-70
2022/05/03 02:42:14;;;;;;;3.70;2.38;;;;;;;9.03;67.25;93624.13;5083525;28;20086;-71
2022/05/03 02:44:40;;;;;;;4.15;2.40;;;;;;;9.06;64.77;93621.94;5083397;28;20031;-71
2022/05/03 02:47:12;;;;;;;4.53;1.90;;;;;;;9.02;63.60;93627.13;5083207;28;20024;-71
2022/05/03 02:49:44;;;;;;;3.08;2.15;;;;;;;9.04;64.25;93623.06;5083500;28;20023;-71
2022/05/03 02:52:31;;;;;;;3.00;2.17;;;;;;;9.10;65.16;93623.72;5083432;28;20028;-70
2022/05/03 02:55:20;;;;;;;6.45;3.22;;;;;;;9.14;66.64;93621.19;5083311;28;20074;-70
2022/05/03 02:57:55;;;;;;;4.72;2.80;;;;;;;9.15;67.38;93612.91;5065658;28;20042;-70
2022/05/03 03:03:23;;;;;;;4.90;3.47;;;;;;;9.13;67.36;93623.06;5083083;28;20087;-71
2022/05/03 03:05:56;;;;;;;6.45;3.28;;;;;;;9.11;67.70;93622.59;5083151;28;20081;-70
2022/05/03 03:08:21;;;;;;;;;;;;;;;9.13;67.30;93624.97;5083481;28;20219;-70
2022/05/03 03:10:49;;;;;;;7.10;3.00;;;;;;;9.10;67.64;93622.91;5083100;28;19904;-71
2022/05/03 03:13:17;;;;;;;5.18;3.35;;;;;;;9.11;67.61;93625.25;5083117;28;20099;-70
2022/05/03 03:15:43;;;;;;;7.00;3.15;;;;;;;9.14;66.74;93629.16;5098627;28;20112;-70
2022/05/03 03:18:13;;;;;;;5.20;3.00;;;;;;;9.16;66.04;93634.97;5082965;28;20435;-70
2022/05/03 03:20:45;;;;;;;4.53;3.08;;;;;;;9.14;66.91;93624.66;5082900;28;20032;-71
2022/05/03 03:23:15;;;;;;;5.67;3.33;;;;;;;9.15;67.18;93617.47;5083156;28;20088;-71
2022/05/03 03:25:43;;;;;;;7.97;3.97;;;;;;;9.15;68.32;93626.22;5082751;28;20066;-71
2022/05/03 03:28:12;;;;;;;5.78;3.72;;;;;;;9.13;69.14;93623.06;5082905;28;20016;-71
2022/05/03 03:30:40;;;;;;;7.90;4.55;;;;;;;9.09;69.82;93624.00;5082801;28;20184;-71
2022/05/03 03:33:07;;;;;;;6.53;4.22;;;;;;;9.03;69.76;93636.66;5082768;28;20031;-71
2022/05/03 03:35:34;;;;;;;6.43;3.65;;;;;;;8.96;70.35;93626.47;5082647;28;20020;-71
2022/05/03 03:38:01;;;;;;;9.90;5.28;;;;;;;8.92;70.42;93617.56;5082646;28;20096;-71
2022/05/03 03:40:27;;;;;;;7.97;4.72;;;;;;;8.95;70.66;93627.56;5082778;28;20024;-70
2022/05/03 03:42:53;;;;;;;8.82;5.10;;;;;;;8.94;70.69;93627.88;5082760;28;20016;-70
2022/05/03 03:45:19;;;;;;;8.93;4.95;;;;;;;8.90;70.88;93624.28;5082815;28;20024;-70
2022/05/03 03:47:47;;;;;;;6.63;4.53;;;;;;;8.89;71.01;93628.78;5082782;28;20017;-70
2022/05/03 03:50:13;;;;;;;8.20;4.18;;;;;;;8.89;70.66;93635.97;5082726;28;20028;-70
2022/05/03 03:52:42;;;;;;;8.07;4.43;;;;;;;8.90;70.81;93635.69;5082701;28;20028;-70
2022/05/03 03:55:09;;;;;;;7.55;4.45;;;;;;;8.86;70.36;93634.72;5082574;28;20258;-70
2022/05/03 03:57:36;;;;;;;6.05;4.47;;;;;;;8.84;70.43;93632.38;5082196;28;20052;-70
2022/05/03 04:00:08;;;;;;;7.68;4.60;;;;;;;8.82;70.60;93639.09;5082159;28;20032;-70
2022/05/03 04:02:35;;;;;;;7.25;4.43;;;;;;;8.83;70.26;93640.66;5082391;28;20043;-71
2022/05/03 04:05:01;;;;;;;7.78;5.18;;;;;;;8.82;70.42;93636.44;5082191;28;20017;-71
2022/05/03 04:07:27;;;;;;;7.07;4.30;;;;;;;8.80;70.47;93642.03;5082351;28;20054;-71
2022/05/03 04:09:52;;;;;;;6.85;4.05;;;;;;;8.80;70.47;93638.63;5082170;28;20020;-71
2022/05/03 04:12:21;;;;;;;6.60;4.45;;;;;;;8.82;70.81;93647.06;5082645;28;20070;-71
2022/05/03 04:14:48;;;;;;;10.07;5.20;;;;;;;8.86;70.61;93640.03;5082622;28;20016;-71
2022/05/03 04:17:13;;;;;;;8.38;4.90;;;;;;;8.92;70.69;93654.75;5082086;28;20021;-71
2022/05/03 04:19:39;;;;;;;7.93;5.82;;;;;;;8.95;70.67;93648.03;5081991;28;20088;-71
2022/05/03 04:22:28;;;;;;;9.10;5.53;;;;;;;8.97;70.41;93643.97;5085344;28;20024;-71
2022/05/03 04:24:54;;;;;;;10.60;6.00;;;;;;;8.98;70.06;93647.44;5086068;28;20016;-71
2022/05/03 04:27:23;;;;;;;8.00;5.43;;;;;;;9.00;70.33;93640.72;5086371;28;20034;-71
2022/05/03 04:29:49;;;;;;;9.52;4.82;;;;;;;9.02;70.35;93648.41;5086232;28;20012;-71
2022/05/03 04:32:15;;;;;;;10.00;4.57;;;;;;;9.06;69.30;93648.53;5086091;28;20065;-71
2022/05/03 04:34:40;;;;;;;6.47;4.30;;;;;;;9.02;69.46;93645.75;5085728;28;20334;-75
2022/05/03 04:37:06;;;;;;;10.55;4.70;;;;;;;9.03;69.62;93650.72;5085858;28;20028;-71
2022/05/03 04:39:32;;;;;;;6.63;4.43;;;;;;;9.04;69.81;93646.22;5085872;28;20239;-71
2022/05/03 04:41:57;;;;;;;8.02;3.78;;;;;;;9.02;68.63;93654.50;5085675;28;20016;-71
2022/05/03 04:44:23;;;;;;;10.77;3.85;;;;;;;9.03;68.29;93653.38;5085489;28;20017;-72
2022/05/03 04:46:48;;;;;;;12.10;4.90;;;;;;;9.10;68.31;93650.28;5085852;28;20345;-71
2022/05/03 04:49:14;;;;;;;6.97;4.20;;;;;;;9.13;68.36;93659.53;5085646;28;20311;-72
2022/05/03 04:51:39;;;;;;;9.38;4.25;;;;;;;9.10;67.43;93665.44;5085694;28;20017;-69
2022/05/03 04:54:04;;;;;;;7.55;3.70;;;;;;;9.11;66.74;93654.50;5085587;28;20099;-70
2022/05/03 04:56:30;;;;;;;7.30;3.67;;;;;;;9.09;67.03;93656.69;5085736;28;20223;-72
2022/05/03 04:58:56;;;;;;;8.85;4.38;;;;;;;9.11;67.20;93645.75;5085325;28;20037;-71
2022/05/03 05:01:22;;;;;;;5.90;3.53;;;;;;;9.17;68.06;93655.94;5086055;28;20248;-70
2022/05/03 05:03:48;;;;;;;6.57;4.07;;;;;;;9.20;67.98;93654.56;5085438;28;20257;-70
2022/05/03 05:06:14;;;;;;;7.78;4.15;;;;;;;9.22;67.67;93663.00;5085777;28;20016;-70
2022/05/03 05:08:42;;;;;;;5.57;3.92;;;;;;;9.24;67.07;93660.81;5085724;28;20095;-71
2022/05/03 05:11:08;;;;;;;7.78;4.75;;;;;;;9.23;67.19;93651.25;5085324;28;20024;-71
2022/05/03 05:13:35;;;;;;;5.38;4.07;;;;;;;9.30;67.29;93648.16;5085509;28;20024;-71
2022/05/03 05:16:00;;;;;;;6.45;4.18;;;;;;;9.35;66.56;93663.97;5085216;28;20016;-71
2022/05/03 05:18:27;;;;;;;7.43;4.03;;;;;;;9.37;66.83;93653.81;5085220;28;20027;-72
2022/05/03 05:20:54;;;;;;;7.07;4.20;;;;;;;9.42;66.54;93651.78;5085125;28;20260;-71
2022/05/03 05:23:20;;;;;;;7.65;4.07;;;;;;;9.48;65.90;93648.97;5085112;28;20098;-71
2022/05/03 05:25:49;;;;;;;7.13;4.25;;;;;;;9.55;65.77;93654.63;5085238;28;20095;-71
2022/05/03 05:28:15;;;;;;;6.00;3.83;;;;;;;9.56;66.09;93656.94;5085123;28;20020;-71
2022/05/03 05:30:42;;;;;;;5.07;3.72;;;;;;;9.64;65.17;93652.75;5085051;28;20021;-71
2022/05/03 05:33:07;;;;;;;7.93;3.80;;;;;;;9.70;64.59;93656.81;5084015;28;20118;-71
2022/05/03 05:35:33;;;;;;;8.05;3.72;;;;;;;9.77;65.09;93657.16;5084790;28;20028;-71
2022/05/03 05:37:59;;;;;;;7.05;3.85;;;;;;;9.83;64.55;93661.22;5084685;28;20024;-71
2022/05/03 05:40:24;;;;;;;7.00;3.45;;;;;;;9.91;63.81;93661.53;5084389;28;20092;-70
2022/05/03 05:42:49;;;;;;;5.22;3.40;;;;;;;9.96;63.02;93672.03;5084792;28;20066;-71
2022/05/03 05:45:16;;;;;;;8.02;3.63;;;;;;;10.02;62.08;93666.22;5084569;28;20027;-71
2022/05/03 05:47:42;;;;;;;6.53;3.83;;;;;;;9.97;62.15;93666.41;5084389;28;20020;-71
2022/05/03 05:50:11;;;;;;;4.80;3.00;;;;;;;10.08;61.93;93677.50;5084049;28;20026;-71
2022/05/03 05:55:22;;;;;;;4.47;3.10;;;;;;;10.15;61.76;93672.47;5084471;28;20096;-72
2022/05/03 05:57:47;;;;;;;5.55;3.08;;;;;;;10.17;62.00;93682.81;5084033;28;20036;-71
2022/05/03 06:00:14;;;;;;;5.97;3.22;;;;;;;10.24;61.24;93669.84;5084011;28;20092;-71
2022/05/03 06:02:39;;;;;;;6.53;2.63;;;;;;;10.28;60.78;93670.78;5084147;28;20024;-72
2022/05/03 06:05:06;;;;;;;5.57;3.00;;;;;;;10.32;60.51;93676.25;5084103;28;20034;-71
2022/05/03 06:07:32;;;;;;;10.85;3.03;;;;;;;10.46;59.66;93670.75;5083888;28;20048;-72
2022/05/03 06:09:57;;;;;;;4.45;2.83;;;;;;;10.56;58.96;93676.56;5083904;28;20329;-71
2022/05/03 06:12:22;;;;;;;3.58;2.28;;;;;;;10.63;58.63;93679.50;5084155;28;20025;-71
2022/05/03 06:14:48;;;;;;;4.38;2.67;;;;;;;10.64;57.46;93686.41;5083784;28;20024;-71
2022/05/03 06:17:13;;;;;;;6.45;2.38;;;;;;;10.70;56.48;93696.91;5083666;28;20242;-71
2022/05/03 06:19:39;;;;;;;8.20;2.38;;;;;;;10.81;56.77;93695.47;5083538;28;20052;-71
2022/05/03 06:22:04;;;;;;;4.68;2.88;;;;;;;10.89;56.25;93700.00;5083926;28;20027;-71
2022/05/03 06:24:29;;;;;;;6.72;3.17;;;;;;;10.94;55.14;93686.47;5083745;28;20024;-71
2022/05/03 06:26:55;;;;;;;5.45;2.03;;;;;;;10.93;55.32;93695.59;5083787;28;20091;-71
2022/05/03 06:29:20;;;;;;;4.47;2.20;;;;;;;11.06;56.05;93695.72;5083673;28;20077;-72
2022/05/03 06:31:46;;;;;;;3.10;1.90;;;;;;;11.13;55.47;93698.66;5083567;28;20318;-72
2022/05/03 06:34:11;;;;;;;4.43;2.45;;;;;;;11.31;55.98;93699.34;5083419;28;20063;-71
2022/05/03 06:36:37;;;;;;;4.80;3.17;;;;;;;11.48;56.12;93709.97;5083542;28;20024;-71
2022/05/03 06:39:04;;;;;;;12.60;2.65;;;;;;;11.61;54.66;93711.59;5083399;28;20140;-71
2022/05/03 06:41:30;;;;;;;9.43;2.83;;;;;;;11.74;55.44;93717.81;5083208;28;20027;-71
2022/05/03 06:44:00;;;;;;;5.68;2.53;;;;;;;11.90;53.91;93727.97;5082943;28;20088;-71
2022/05/03 06:46:25;;;;;;;7.93;2.83;;;;;;;12.06;54.28;93723.63;5083158;28;20031;-71
2022/05/03 06:48:51;;;;;;;7.10;2.63;;;;;;;12.10;54.91;93719.19;5083353;28;20016;-71
2022/05/03 06:51:17;;;;;;;7.05;2.75;;;;;;;12.11;53.91;93719.97;5082973;28;20021;-71
2022/05/03 06:53:43;;;;;;;7.53;2.42;;;;;;;12.18;53.76;93723.69;5083059;28;20196;-71
2022/05/03 06:56:08;;;;;;;4.25;2.78;;;;;;;12.23;54.29;93728.03;5065282;28;20048;-71
2022/05/03 06:58:34;;;;;;;6.00;3.13;;;;;;;12.27;55.56;93736.19;5082697;28;20055;-72
2022/05/03 07:01:09;;;;;;;7.20;3.40;;;;;;;12.53;58.86;93741.34;5083013;28;20067;-72
2022/05/03 07:03:35;;;;;;;5.93;2.92;;;;;;;12.93;56.21;93738.16;5065103;28;20286;-73
2022/05/03 07:06:01;;;;;;;9.48;3.40;;;;;;;13.28;54.62;93722.50;5082848;28;20119;-73
2022/05/03 07:08:26;;;;;;;9.05;3.00;;;;;;;13.64;52.90;93729.03;5082800;28;20043;-73
2022/05/03 07:10:52;;;;;;;8.02;3.60;;;;;;;13.95;51.24;93733.78;5082817;28;20073;-73
2022/05/03 07:13:23;;;;;;;7.43;2.65;;;;;;;14.18;50.68;93736.75;5082935;28;20027;-73
2022/05/03 07:15:53;;;;;;;7.57;2.95;;;;;;;14.44;48.99;93728.31;5082907;28;20012;-73
2022/05/03 07:23:47;;;;;;;8.93;3.10;;;;;;;14.53;48.58;93730.88;5082551;28;20031;-71
2022/05/03 07:26:13;;;;;;;8.80;2.90;;;;;;;14.43;47.85;93729.44;5082968;28;20267;-71
2022/05/03 07:28:38;;;;;;;4.68;2.67;;;;;;;14.37;49.00;93743.41;5082749;28;20023;-71
2022/05/03 07:31:04;;;;;;;12.25;3.13;;;;;;;14.16;49.73;93732.88;5082743;28;20083;-72
2022/05/03 07:33:32;;;;;;;9.38;4.13;;;;;;;14.04;48.81;93741.69;5082737;28;20096;-71
2022/05/03 07:35:58;;;;;;;9.18;4.28;;;;;;;13.92;49.05;93742.50;5082540;28;20039;-70
2022/05/03 07:38:23;;;;;;;11.50;6.13;;;;;;;13.86;49.23;93743.88;5082608;28;20318;-70
2022/05/03 07:40:49;;;;;;;13.55;5.32;;;;;;;13.75;50.07;93740.81;5082641;28;20062;-70
2022/05/03 07:43:14;;;;;;;6.05;3.45;;;;;;;13.70;49.28;93749.09;5082586;28;20100;-70
2022/05/03 07:45:40;;;;;;;8.38;3.10;;;;;;;13.60;49.90;93746.88;5082205;28;20044;-71
2022/05/03 07:48:05;;;;;;;4.65;3.00;;;;;;;13.60;50.27;93744.97;5082511;28;20024;-73
2022/05/03 07:50:31;;;;;;;4.35;2.72;;;;;;;13.66;50.57;93748.22;5082510;28;20012;-72
2022/05/03 07:52:57;;;;;;;6.80;2.70;;;;;;;13.64;48.85;93750.44;5082628;28;20111;-71
2022/05/03 07:55:22;;;;;;;6.35;3.20;;;;;;;13.57;49.49;93758.25;5082834;28;20326;-71
2022/05/03 07:57:48;;;;;;;7.28;3.28;;;;;;;13.55;49.59;93763.16;5086538;28;20052;-70
2022/05/03 08:00:14;;;;;;;11.25;3.30;;;;;;;13.56;49.83;93759.38;5086290;28;20262;-71
2022/05/03 08:02:39;;;;;;;5.22;2.33;;;;;;;13.44;50.17;93760.91;5086464;28;20221;-72
2022/05/03 08:05:07;;;;;;;5.72;3.22;;;;;;;13.36;55.57;93766.38;5086262;28;20051;-71
2022/05/03 08:07:33;;;;;;;7.18;3.05;;;;;;;13.40;55.16;93760.00;5085986;28;20016;-72
2022/05/03 08:09:58;;;;;;;4.65;3.30;;;;;;;13.48;55.25;93769.06;5086409;28;20252;-73
2022/05/03 08:12:23;;;;;;;10.30;3.70;;;;;;;13.50;55.63;93766.06;5086131;28;20083;-73
2022/05/03 08:14:49;;;;;;;5.57;3.38;;;;;;;13.48;54.70;93768.28;5086238;28;20017;-77
2022/05/03 08:17:15;;;;;;;5.43;2.63;;;;;;;13.48;54.37;93770.97;5086289;28;20028;-76
2022/05/03 08:19:40;;;;;;;6.35;2.97;;;;;;;13.46;54.77;93771.28;5086019;28;20033;-76
2022/05/03 08:22:06;;;;;;;5.45;2.45;;;;;;;13.36;54.87;93772.50;5086047;28;20020;-77
2022/05/03 08:24:32;;;;;;;5.88;3.65;;;;;;;13.34;55.56;93782.75;5086035;28;20039;-78
2022/05/03 08:26:59;;;;;;;6.55;2.85;;;;;;;13.35;55.02;93787.00;5086280;28;20036;-76
2022/05/03 08:29:27;;;;;;;4.90;2.72;;;;;;;13.34;54.23;93779.31;5085927;28;20290;-75
2022/05/03 08:31:52;;;;;;;5.60;2.20;;;;;;;13.31;54.27;93779.94;5085978;28;20070;-76
2022/05/03 08:34:18;;;;;;;4.63;2.55;;;;;;;13.30;54.14;93784.53;5085830;28;20303;-76
2022/05/03 08:42:01;;;;;;;7.50;2.65;;;;;;;13.26;54.56;93788.94;5085967;28;20039;-78
2022/05/03 08:42:15;;;;;;;4.10;2.25;;;;;;;13.36;54.87;93788.56;5085714;28;20043;-75
2022/05/03 08:44:40;;;;;;;3.13;1.73;;;;;;;13.43;54.26;93791.47;5085489;28;20021;-75
2022/05/03 08:47:06;;;;;;;3.90;1.73;;;;;;;13.43;53.16;93796.84;5085626;28;20044;-74
2022/05/03 08:49:47;;;;;;;7.57;2.53;;;;;;;13.52;53.55;93794.06;5085489;28;20099;-75
2022/05/03 08:52:15;;;;;;;4.53;2.40;;;;;;;13.60;53.40;93798.53;5085495;28;20090;-74
2022/05/03 08:54:41;;;;;;;3.83;3.10;;;;;;;13.68;53.96;93794.19;5085316;28;20191;-75
2022/05/03 08:57:08;;;;;;;9.45;2.17;;;;;;;13.67;54.41;93799.88;5085302;28;20031;-75
2022/05/03 08:59:37;;;;;;;5.22;3.22;;;;;;;13.68;54.87;93798.75;5085310;28;20032;-76
2022/05/03 09:02:04;;;;;;;5.20;3.65;;;;;;;13.71;55.25;93796.19;5085446;28;20024;-76
2022/05/03 09:04:30;;;;;;;9.68;4.38;;;;;;;13.79;55.12;93795.28;5067586;28;20315;-76
2022/05/03 09:06:55;;;;;;;11.13;3.35;;;;;;;13.94;54.17;93795.75;5085271;28;20028;-75
2022/05/03 09:09:21;;;;;;;3.50;2.30;;;;;;;14.03;52.65;93791.84;5085310;28;20021;-75
2022/05/03 09:11:50;;;;;;;3.63;2.33;;;;;;;14.20;52.30;93793.50;5085670;28;20028;-77
2022/05/03 09:14:39;;;;;;;19.77;3.25;;;;;;;14.38;51.60;93793.25;5085450;28;20319;-78
2022/05/03 09:17:05;;;;;;;2.95;1.60;;;;;;;14.53;50.77;93802.50;5085347;28;20020;-76
2022/05/03 09:19:31;;;;;;;4.65;2.40;;;;;;;14.71;50.22;93789.63;5084955;28;20020;-77
2022/05/03 09:25:04;;;;;;;5.28;1.45;;;;;;;14.98;47.53;93794.22;5085216;28;20373;-80
2022/05/03 09:27:31;;;;;;;4.28;2.00;;;;;;;15.11;47.39;93796.84;5084071;28;20027;-75
2022/05/03 09:30:09;;;;;;;8.15;2.65;;;;;;;15.16;47.80;93788.53;5084724;28;20017;-75
2022/05/03 09:32:41;;;;;;;8.32;2.33;;;;;;;15.16;46.53;93805.44;5084742;28;20028;-78
2022/05/03 09:35:33;;;;;;;10.15;2.13;;;;;;;15.32;46.13;93786.66;5085074;28;20028;-78
2022/05/03 09:38:02;;;;;;;5.03;1.60;;;;;;;15.45;45.95;93788.16;5084810;28;20039;-76
2022/05/03 09:40:34;;;;;;;4.78;2.03;;;;;;;15.56;47.05;93787.66;5084655;28;20033;-76
2022/05/03 09:42:59;;;;;;;18.77;2.85;;;;;;;15.65;46.31;93785.56;5084621;28;20345;-75
2022/05/03 09:45:26;;;;;;;5.70;1.90;;;;;;;15.69;46.08;93780.28;5084757;28;20032;-76
2022/05/03 09:47:56;;;;;;;4.28;2.22;;;;;;;15.62;46.02;93786.28;5084832;28;20250;-76
2022/05/03 09:50:39;;;;;;;3.25;2.00;;;;;;;15.42;46.24;93785.38;5084473;28;20067;-84
2022/05/03 09:53:08;;;;;;;3.97;2.03;;;;;;;15.35;45.55;93790.59;5066935;28;20052;-81
2022/05/03 09:55:37;;;;;;;4.85;2.20;;;;;;;15.34;46.18;93781.72;5084705;28;20028;-82
2022/05/03 09:58:05;;;;;;;4.55;1.65;;;;;;;15.42;46.45;93780.78;5084669;28;20048;-81
2022/05/03 10:00:33;;;;;;;6.43;1.48;;;;;;;15.53;45.66;93774.91;5084445;28;20226;-81
2022/05/03 10:03:00;;;;;;;2.08;1.17;;;;;;;15.59;42.92;93778.91;5084212;28;20028;-78
2022/05/03 10:05:25;;;;;;;1.48;1.08;;;;;;;15.65;42.11;93777.50;5084573;28;20020;-78
2022/05/03 10:07:52;;;;;;;2.65;1.27;;;;;;;15.70;41.38;93773.81;5084210;28;20020;-79
2022/05/03 10:10:19;;;;;;;5.20;1.30;;;;;;;15.77;41.44;93785.53;5084268;28;20020;-78
2022/05/03 10:12:46;;;;;;;2.40;1.27;;;;;;;15.76;41.12;93775.91;5084266;28;20024;-79
2022/05/03 10:15:13;;;;;;;3.33;1.35;;;;;;;15.74;40.91;93780.84;5084465;28;20224;-78
2022/05/03 10:20:46;;;;;;;3.90;1.20;;;;;;;15.50;41.61;93778.28;5083900;28;20042;-76
2022/05/03 10:23:23;;;;;;;2.63;1.40;;;;;;;15.31;41.88;93781.66;5083967;28;20245;-77
2022/05/03 10:25:51;;;;;;;5.10;3.05;;;;;;;15.11;42.06;93781.53;5084103;28;20215;-76
2022/05/03 10:28:17;;;;;;;5.72;1.85;;;;;;;14.97;42.19;93775.78;5083923;28;20485;-76
2022/05/03 10:31:04;;;;;;;8.45;1.92;;;;;;;14.90;41.94;93770.22;5083989;28;20051;-76
2022/05/03 10:33:29;;;;;;;6.72;2.95;;;;;;;14.88;42.14;93775.13;5083705;28;20346;-76
2022/05/03 10:35:55;;;;;;;6.63;3.90;;;;;;;14.83;42.52;93771.56;5083977;28;20024;-75
2022/05/03 10:38:43;;;;;;;3.58;2.30;;;;;;;14.82;42.08;93774.63;5083529;28;20208;-75
2022/05/03 10:41:09;;;;;;;6.40;1.05;;;;;;;14.75;42.05;93774.41;5083636;28;20028;-75
2022/05/03 10:43:36;;;;;;;2.35;1.23;;;;;;;14.70;42.47;93769.28;5083386;28;20028;-75
2022/05/03 10:46:20;;;;;;;2.08;1.23;;;;;;;14.57;42.83;93769.34;5083487;28;20020;-75
2022/05/03 10:49:11;;;;;;;2.20;1.10;;;;;;;14.63;43.43;93767.97;5083440;28;20069;-74
2022/05/03 10:51:37;;;;;;;3.03;1.30;;;;;;;14.92;43.88;93767.97;5083306;28;20226;-75
2022/05/03 10:54:04;;;;;;;2.53;1.40;;;;;;;15.21;41.86;93769.50;5083237;28;20314;-74
2022/05/03 10:56:30;;;;;;;5.95;2.15;;;;;;;15.45;42.42;93764.00;5083039;28;20085;-74
2022/05/03 10:59:16;;;;;;;6.90;2.20;;;;;;;15.75;41.78;93763.59;5082985;28;20351;-74
2022/05/03 11:01:56;;;;;;;3.33;1.50;;;;;;;16.08;40.15;93762.44;5083085;28;20040;-74
2022/05/03 11:04:24;;;;;;;4.57;2.00;;;;;;;16.33;39.59;93762.22;5083008;28;20024;-75
2022/05/03 11:06:49;;;;;;;3.38;1.60;;;;;;;16.53;38.80;93758.41;5082830;28;20364;-75
2022/05/03 11:09:32;;;;;;;3.72;2.10;;;;;;;16.73;38.95;93758.41;5083086;28;20016;-74
2022/05/03 11:12:04;;;;;;;2.92;2.25;;;;;;;16.76;37.71;93757.72;5082882;28;20012;-74
2022/05/03 11:14:29;;;;;;;3.40;1.70;;;;;;;16.76;36.84;93755.03;5082945;28;20253;-74
2022/05/03 11:17:08;;;;;;;2.17;1.52;;;;;;;16.71;37.65;93757.97;5082977;28;20028;-76
2022/05/03 11:19:35;;;;;;;4.13;1.95;;;;;;;16.72;38.04;93757.63;5082908;28;20047;-76
2022/05/03 11:22:02;;;;;;;5.70;2.03;;;;;;;16.73;38.68;93759.22;5082721;28;20245;-76
2022/05/03 11:24:29;;;;;;;7.28;2.85;;;;;;;16.88;38.60;93754.13;5082688;28;20024;-76
2022/05/03 11:27:00;;;;;;;2.58;1.75;;;;;;;17.06;38.44;93749.88;5082844;28;20028;-76
2022/05/03 11:29:30;;;;;;;6.55;1.55;;;;;;;17.21;37.55;93746.28;5082660;28;20016;-75
2022/05/03 11:31:58;;;;;;;2.55;1.30;;;;;;;17.22;37.32;93739.00;5081935;28;20066;-76
2022/05/03 11:34:24;;;;;;;4.55;1.40;;;;;;;17.27;37.20;93744.09;5082984;28;20330;-76
2022/05/03 11:36:52;;;;;;;4.93;1.25;;;;;;;17.33;37.52;93747.25;5082742;28;20029;-76
2022/05/03 11:39:18;;;;;;;4.53;1.73;;;;;;;17.34;37.32;93746.91;5082535;28;20036;-76
2022/05/03 11:41:45;;;;;;;4.45;1.38;;;;;;;17.41;37.83;93752.41;5082399;28;20058;-76
2022/05/03 11:44:11;;;;;;;6.45;1.60;;;;;;;17.49;37.31;93758.72;5082483;28;20027;-78
2022/05/03 11:46:38;;;;;;;6.25;2.08;;;;;;;17.56;37.46;93747.25;5082898;28;20044;-79
2022/05/03 11:49:08;;;;;;;4.10;1.60;;;;;;;17.65;37.79;93751.28;5082582;28;20020;-79
2022/05/03 11:57:13;;;;;;;3.58;1.60;;;;;;;17.83;36.95;93738.13;5082695;28;20170;-77
2022/05/03 11:59:40;;;;;;;3.00;1.50;;;;;;;17.95;35.00;93739.03;5082447;28;20033;-77
2022/05/03 12:02:12;;;;;;;2.75;1.38;;;;;;;17.90;35.42;93747.47;5082517;28;20070;-77
2022/05/03 12:04:37;;;;;;;2.47;1.30;;;;;;;17.84;34.48;93742.38;5082392;28;20031;-76
2022/05/03 12:07:03;;;;;;;11.00;2.13;;;;;;;17.75;34.58;93741.81;5082276;28;20020;-78
2022/05/03 12:09:35;;;;;;;5.55;1.88;;;;;;;17.60;36.34;93738.09;5082758;28;20024;-76
2022/05/03 12:14:44;;;;;;;2.70;1.60;;;;;;;17.17;40.02;93750.06;5082936;28;20063;-82
2022/05/03 12:17:11;;;;;;;4.10;2.10;;;;;;;16.90;41.80;93736.50;5082559;28;20024;-79
2022/05/03 12:19:37;;;;;;;5.28;1.35;;;;;;;16.63;42.45;93747.09;5081910;28;20029;-77